sensor_id;sensor_type;location;lat;lon;timestamp;P1;durP1;ratioP1;P2;durP2;ratioP2
43945;SDS011;29599;51.196;4.428;2022-07-03T00:01:18;1.80;;;1.20;;
43945;SDS011;29599;51.196;4.428;2022-07-03T00:03:44;2.55;;;1.05;;
43945;SDS011;29599;51.196;4.428;2022-07-03T00:06:10;5.45;;;1.13;;
43945;SDS011;29599;51.196;4.428;2022-07-03T00:08:36;2.92;;;1.02;;
43945;SDS011;29599;51.196;4.428;2022-07-03T00:11:02;3.42;;;1.00;;
43945;SDS011;29599;51.196;4.428;2022-07-03T00:13:28;3.95;;;0.90;;
43945;SDS011;29599;51.196;4.428;2022-07-03T00:15:54;2.10;;;0.93;;
43945;SDS011;29599;51.196;4.428;2022-07-03T00:18:19;3.28;;;1.15;;
43945;SDS011;29599;51.196;4.428;2022-07-03T00:20:45;5.95;;;1.40;;
43945;SDS011;29599;51.196;4.428;2022-07-03T00:23:15;4.57;;;1.30;;
43945;SDS011;29599;51.196;4.428;2022-07-03T00:25:43;2.63;;;1.07;;
43945;SDS011;29599;51.196;4.428;2022-07-03T00:28:09;8.57;;;1.52;;
43945;SDS011;29599;51.196;4.428;2022-07-03T00:30:35;3.05;;;1.00;;
43945;SDS011;29599;51.196;4.428;2022-07-03T00:33:01;4.93;;;1.08;;
43945;SDS011;29599;51.196;4.428;2022-07-03T00:35:29;3.60;;;1.33;;
43945;SDS011;29599;51.196;4.428;2022-07-03T00:37:57;3.50;;;1.08;;
43945;SDS011;29599;51.196;4.428;2022-07-03T00:40:22;5.25;;;1.10;;
43945;SDS011;29599;51.196;4.428;2022-07-03T00:42:49;3.95;;;1.00;;
43945;SDS011;29599;51.196;4.428;2022-07-03T00:45:16;7.10;;;1.00;;
43945;SDS011;29599;51.196;4.428;2022-07-03T00:47:45;3.15;;;1.20;;
43945;SDS011;29599;51.196;4.428;2022-07-03T00:50:11;5.93;;;1.38;;
43945;SDS011;29599;51.196;4.428;2022-07-03T00:52:37;6.78;;;1.10;;
43945;SDS011;29599;51.196;4.428;2022-07-03T00:55:08;3.05;;;1.00;;
43945;SDS011;29599;51.196;4.428;2022-07-03T00:57:36;7.00;;;1.25;;
43945;SDS011;29599;51.196;4.428;2022-07-03T01:00:10;4.60;;;1.40;;
43945;SDS011;29599;51.196;4.428;2022-07-03T01:02:53;12.68;;;1.45;;
43945;SDS011;29599;51.196;4.428;2022-07-03T01:05:37;3.90;;;1.20;;
43945;SDS011;29599;51.196;4.428;2022-07-03T01:14:01;5.25;;;1.63;;
43945;SDS011;29599;51.196;4.428;2022-07-03T01:16:24;3.35;;;1.50;;
43945;SDS011;29599;51.196;4.428;2022-07-03T01:18:59;4.10;;;1.55;;
43945;SDS011;29599;51.196;4.428;2022-07-03T01:21:41;6.00;;;1.77;;
43945;SDS011;29599;51.196;4.428;2022-07-03T01:26:47;9.23;;;1.73;;
43945;SDS011;29599;51.196;4.428;2022-07-03T01:29:22;8.10;;;1.92;;
43945;SDS011;29599;51.196;4.428;2022-07-03T01:31:54;2.60;;;1.30;;
43945;SDS011;29599;51.196;4.428;2022-07-03T01:34:21;6.68;;;1.55;;
43945;SDS011;29599;51.196;4.428;2022-07-03T01:36:50;7.75;;;1.70;;
43945;SDS011;29599;51.196;4.428;2022-07-03T01:39:24;6.15;;;1.40;;
43945;SDS011;29599;51.196;4.428;2022-07-03T01:41:51;3.95;;;1.20;;
43945;SDS011;29599;51.196;4.428;2022-07-03T01:44:21;8.90;;;1.40;;
43945;SDS011;29599;51.196;4.428;2022-07-03T01:46:49;4.25;;;1.63;;
43945;SDS011;29599;51.196;4.428;2022-07-03T01:49:16;8.55;;;1.52;;
43945;SDS011;29599;51.196;4.428;2022-07-03T01:51:43;8.18;;;1.77;;
43945;SDS011;29599;51.196;4.428;2022-07-03T01:56:39;9.82;;;1.90;;
43945;SDS011;29599;51.196;4.428;2022-07-03T01:59:04;12.38;;;2.17;;
43945;SDS011;29599;51.196;4.428;2022-07-03T02:01:31;8.07;;;1.70;;
43945;SDS011;29599;51.196;4.428;2022-07-03T02:09:24;4.75;;;1.70;;
43945;SDS011;29599;51.196;4.428;2022-07-03T02:11:58;6.57;;;1.77;;
43945;SDS011;29599;51.196;4.428;2022-07-03T02:14:36;7.72;;;1.77;;
43945;SDS011;29599;51.196;4.428;2022-07-03T02:19:48;5.72;;;1.67;;
43945;SDS011;29599;51.196;4.428;2022-07-03T02:22:20;4.65;;;1.90;;
43945;SDS011;29599;51.196;4.428;2022-07-03T02:25:05;5.90;;;1.73;;
43945;SDS011;29599;51.196;4.428;2022-07-03T02:30:22;6.68;;;1.35;;
43945;SDS011;29599;51.196;4.428;2022-07-03T02:32:50;4.45;;;1.75;;
43945;SDS011;29599;51.196;4.428;2022-07-03T02:35:17;5.47;;;1.95;;
43945;SDS011;29599;51.196;4.428;2022-07-03T02:43:18;4.53;;;1.92;;
43945;SDS011;29599;51.196;4.428;2022-07-03T02:45:49;6.05;;;2.38;;
43945;SDS011;29599;51.196;4.428;2022-07-03T02:48:30;5.32;;;1.50;;
43945;SDS011;29599;51.196;4.428;2022-07-03T02:51:02;4.53;;;1.65;;
43945;SDS011;29599;51.196;4.428;2022-07-03T02:53:47;6.88;;;1.60;;
43945;SDS011;29599;51.196;4.428;2022-07-03T02:56:27;9.13;;;1.70;;
43945;SDS011;29599;51.196;4.428;2022-07-03T02:59:29;5.32;;;2.10;;
43945;SDS011;29599;51.196;4.428;2022-07-03T03:04:44;7.65;;;2.10;;
43945;SDS011;29599;51.196;4.428;2022-07-03T03:07:14;6.80;;;2.38;;
43945;SDS011;29599;51.196;4.428;2022-07-03T03:09:42;7.43;;;2.35;;
43945;SDS011;29599;51.196;4.428;2022-07-03T03:12:11;7.80;;;2.40;;
43945;SDS011;29599;51.196;4.428;2022-07-03T03:14:48;9.70;;;2.35;;
43945;SDS011;29599;51.196;4.428;2022-07-03T03:17:25;10.60;;;2.90;;
43945;SDS011;29599;51.196;4.428;2022-07-03T03:20:00;8.93;;;3.25;;
43945;SDS011;29599;51.196;4.428;2022-07-03T03:22:51;7.22;;;3.20;;
43945;SDS011;29599;51.196;4.428;2022-07-03T03:25:33;9.10;;;2.60;;
43945;SDS011;29599;51.196;4.428;2022-07-03T03:27:59;8.77;;;2.95;;
43945;SDS011;29599;51.196;4.428;2022-07-03T03:30:24;6.53;;;2.60;;
43945;SDS011;29599;51.196;4.428;2022-07-03T03:32:50;8.50;;;2.38;;
43945;SDS011;29599;51.196;4.428;2022-07-03T03:35:16;8.57;;;2.65;;
43945;SDS011;29599;51.196;4.428;2022-07-03T03:37:42;6.43;;;2.47;;
43945;SDS011;29599;51.196;4.428;2022-07-03T03:40:10;12.27;;;3.13;;
43945;SDS011;29599;51.196;4.428;2022-07-03T03:42:36;6.80;;;2.45;;
43945;SDS011;29599;51.196;4.428;2022-07-03T03:45:02;7.10;;;2.75;;
43945;SDS011;29599;51.196;4.428;2022-07-03T03:47:28;11.30;;;2.83;;
43945;SDS011;29599;51.196;4.428;2022-07-03T03:49:54;4.60;;;1.95;;
43945;SDS011;29599;51.196;4.428;2022-07-03T03:52:20;4.90;;;2.00;;
43945;SDS011;29599;51.196;4.428;2022-07-03T03:54:46;6.60;;;1.75;;
43945;SDS011;29599;51.196;4.428;2022-07-03T03:57:18;3.72;;;1.90;;
43945;SDS011;29599;51.196;4.428;2022-07-03T03:59:45;6.47;;;1.98;;
43945;SDS011;29599;51.196;4.428;2022-07-03T04:02:12;4.85;;;1.65;;
43945;SDS011;29599;51.196;4.428;2022-07-03T04:04:38;6.55;;;1.67;;
43945;SDS011;29599;51.196;4.428;2022-07-03T04:07:03;4.63;;;2.20;;
43945;SDS011;29599;51.196;4.428;2022-07-03T04:09:29;3.65;;;1.65;;
43945;SDS011;29599;51.196;4.428;2022-07-03T04:11:55;5.10;;;2.00;;
43945;SDS011;29599;51.196;4.428;2022-07-03T04:14:21;7.13;;;2.17;;
43945;SDS011;29599;51.196;4.428;2022-07-03T04:16:47;5.03;;;1.88;;
43945;SDS011;29599;51.196;4.428;2022-07-03T04:19:12;3.13;;;1.85;;
43945;SDS011;29599;51.196;4.428;2022-07-03T04:21:38;5.35;;;1.77;;
43945;SDS011;29599;51.196;4.428;2022-07-03T04:24:04;5.65;;;1.92;;
43945;SDS011;29599;51.196;4.428;2022-07-03T04:26:29;5.80;;;1.92;;
43945;SDS011;29599;51.196;4.428;2022-07-03T04:28:55;7.72;;;2.25;;
43945;SDS011;29599;51.196;4.428;2022-07-03T04:31:20;9.85;;;2.20;;
43945;SDS011;29599;51.196;4.428;2022-07-03T04:33:46;7.05;;;1.67;;
43945;SDS011;29599;51.196;4.428;2022-07-03T04:36:12;4.15;;;1.80;;
43945;SDS011;29599;51.196;4.428;2022-07-03T04:38:37;6.88;;;1.67;;
43945;SDS011;29599;51.196;4.428;2022-07-03T04:41:03;4.63;;;2.30;;
43945;SDS011;29599;51.196;4.428;2022-07-03T04:43:28;9.00;;;2.63;;
43945;SDS011;29599;51.196;4.428;2022-07-03T04:45:54;4.82;;;2.28;;
43945;SDS011;29599;51.196;4.428;2022-07-03T04:48:20;6.80;;;2.55;;
43945;SDS011;29599;51.196;4.428;2022-07-03T04:50:45;6.28;;;2.75;;
43945;SDS011;29599;51.196;4.428;2022-07-03T04:53:11;6.32;;;2.80;;
43945;SDS011;29599;51.196;4.428;2022-07-03T04:55:37;8.23;;;2.78;;
43945;SDS011;29599;51.196;4.428;2022-07-03T04:58:02;8.68;;;2.95;;
43945;SDS011;29599;51.196;4.428;2022-07-03T05:00:28;6.53;;;2.83;;
43945;SDS011;29599;51.196;4.428;2022-07-03T05:02:54;8.90;;;2.72;;
43945;SDS011;29599;51.196;4.428;2022-07-03T05:05:19;6.13;;;2.55;;
43945;SDS011;29599;51.196;4.428;2022-07-03T05:07:45;8.50;;;3.05;;
43945;SDS011;29599;51.196;4.428;2022-07-03T05:10:11;4.85;;;3.00;;
43945;SDS011;29599;51.196;4.428;2022-07-03T05:12:36;3.15;;;2.42;;
43945;SDS011;29599;51.196;4.428;2022-07-03T05:15:02;9.63;;;3.00;;
43945;SDS011;29599;51.196;4.428;2022-07-03T05:17:28;5.95;;;2.60;;
43945;SDS011;29599;51.196;4.428;2022-07-03T05:19:54;8.13;;;2.97;;
43945;SDS011;29599;51.196;4.428;2022-07-03T05:22:38;7.50;;;3.63;;
43945;SDS011;29599;51.196;4.428;2022-07-03T05:25:04;5.50;;;3.28;;
43945;SDS011;29599;51.196;4.428;2022-07-03T05:27:30;5.50;;;2.92;;
43945;SDS011;29599;51.196;4.428;2022-07-03T05:29:56;8.43;;;3.63;;
43945;SDS011;29599;51.196;4.428;2022-07-03T05:32:21;4.72;;;3.47;;
43945;SDS011;29599;51.196;4.428;2022-07-03T05:34:47;8.32;;;3.13;;
43945;SDS011;29599;51.196;4.428;2022-07-03T05:37:12;7.05;;;3.92;;
43945;SDS011;29599;51.196;4.428;2022-07-03T05:39:38;8.00;;;3.42;;
43945;SDS011;29599;51.196;4.428;2022-07-03T05:42:04;7.68;;;3.45;;
43945;SDS011;29599;51.196;4.428;2022-07-03T05:44:30;4.78;;;3.35;;
43945;SDS011;29599;51.196;4.428;2022-07-03T05:46:56;5.90;;;3.35;;
43945;SDS011;29599;51.196;4.428;2022-07-03T05:49:21;6.80;;;3.35;;
43945;SDS011;29599;51.196;4.428;2022-07-03T05:51:47;8.15;;;3.70;;
43945;SDS011;29599;51.196;4.428;2022-07-03T05:54:13;7.70;;;3.22;;
43945;SDS011;29599;51.196;4.428;2022-07-03T05:56:38;7.85;;;3.70;;
43945;SDS011;29599;51.196;4.428;2022-07-03T05:59:04;9.18;;;3.80;;
43945;SDS011;29599;51.196;4.428;2022-07-03T06:01:30;10.13;;;4.20;;
43945;SDS011;29599;51.196;4.428;2022-07-03T06:03:55;7.05;;;3.92;;
43945;SDS011;29599;51.196;4.428;2022-07-03T06:06:21;10.52;;;4.25;;
43945;SDS011;29599;51.196;4.428;2022-07-03T06:08:46;8.13;;;4.40;;
43945;SDS011;29599;51.196;4.428;2022-07-03T06:11:12;5.88;;;3.90;;
43945;SDS011;29599;51.196;4.428;2022-07-03T06:13:37;7.40;;;4.28;;
43945;SDS011;29599;51.196;4.428;2022-07-03T06:16:04;8.25;;;3.97;;
43945;SDS011;29599;51.196;4.428;2022-07-03T06:18:29;7.53;;;4.10;;
43945;SDS011;29599;51.196;4.428;2022-07-03T06:20:55;7.72;;;3.40;;
43945;SDS011;29599;51.196;4.428;2022-07-03T06:23:20;8.50;;;3.92;;
43945;SDS011;29599;51.196;4.428;2022-07-03T06:25:46;7.82;;;4.13;;
43945;SDS011;29599;51.196;4.428;2022-07-03T06:28:12;12.90;;;4.30;;
43945;SDS011;29599;51.196;4.428;2022-07-03T06:30:37;9.48;;;4.18;;
43945;SDS011;29599;51.196;4.428;2022-07-03T06:33:03;9.63;;;3.78;;
43945;SDS011;29599;51.196;4.428;2022-07-03T06:35:29;8.95;;;4.53;;
43945;SDS011;29599;51.196;4.428;2022-07-03T06:37:54;11.02;;;5.00;;
43945;SDS011;29599;51.196;4.428;2022-07-03T06:40:20;8.63;;;4.35;;
43945;SDS011;29599;51.196;4.428;2022-07-03T06:42:45;8.38;;;4.13;;
43945;SDS011;29599;51.196;4.428;2022-07-03T06:45:11;7.13;;;3.95;;
43945;SDS011;29599;51.196;4.428;2022-07-03T06:47:39;9.30;;;3.78;;
43945;SDS011;29599;51.196;4.428;2022-07-03T06:50:06;8.60;;;3.60;;
43945;SDS011;29599;51.196;4.428;2022-07-03T06:52:32;12.32;;;2.75;;
43945;SDS011;29599;51.196;4.428;2022-07-03T06:54:57;5.50;;;2.72;;
43945;SDS011;29599;51.196;4.428;2022-07-03T06:57:23;7.03;;;3.08;;
43945;SDS011;29599;51.196;4.428;2022-07-03T06:59:48;5.82;;;2.58;;
43945;SDS011;29599;51.196;4.428;2022-07-03T07:02:14;6.13;;;2.75;;
43945;SDS011;29599;51.196;4.428;2022-07-03T07:04:40;6.55;;;3.28;;
43945;SDS011;29599;51.196;4.428;2022-07-03T07:07:06;12.27;;;2.60;;
43945;SDS011;29599;51.196;4.428;2022-07-03T07:09:31;4.78;;;3.03;;
43945;SDS011;29599;51.196;4.428;2022-07-03T07:11:57;13.82;;;4.13;;
43945;SDS011;29599;51.196;4.428;2022-07-03T07:14:23;7.70;;;2.95;;
43945;SDS011;29599;51.196;4.428;2022-07-03T07:16:48;8.02;;;3.13;;
43945;SDS011;29599;51.196;4.428;2022-07-03T07:19:14;10.93;;;4.38;;
43945;SDS011;29599;51.196;4.428;2022-07-03T07:21:40;7.47;;;3.03;;
43945;SDS011;29599;51.196;4.428;2022-07-03T07:24:06;9.32;;;3.30;;
43945;SDS011;29599;51.196;4.428;2022-07-03T07:26:32;6.50;;;3.08;;
43945;SDS011;29599;51.196;4.428;2022-07-03T07:28:57;6.32;;;3.78;;
43945;SDS011;29599;51.196;4.428;2022-07-03T07:31:23;5.22;;;3.45;;
43945;SDS011;29599;51.196;4.428;2022-07-03T07:33:48;6.22;;;3.22;;
43945;SDS011;29599;51.196;4.428;2022-07-03T07:36:14;10.07;;;3.35;;
43945;SDS011;29599;51.196;4.428;2022-07-03T07:38:40;6.35;;;2.97;;
43945;SDS011;29599;51.196;4.428;2022-07-03T07:41:05;6.75;;;2.90;;
43945;SDS011;29599;51.196;4.428;2022-07-03T07:43:31;4.55;;;2.83;;
43945;SDS011;29599;51.196;4.428;2022-07-03T07:45:56;9.43;;;3.92;;
43945;SDS011;29599;51.196;4.428;2022-07-03T07:48:22;4.40;;;2.50;;
43945;SDS011;29599;51.196;4.428;2022-07-03T07:50:47;8.13;;;2.92;;
43945;SDS011;29599;51.196;4.428;2022-07-03T07:53:14;5.53;;;2.85;;
43945;SDS011;29599;51.196;4.428;2022-07-03T07:55:40;5.25;;;2.50;;
43945;SDS011;29599;51.196;4.428;2022-07-03T07:58:06;6.45;;;2.60;;
43945;SDS011;29599;51.196;4.428;2022-07-03T08:00:33;5.47;;;2.55;;
43945;SDS011;29599;51.196;4.428;2022-07-03T08:02:58;5.63;;;2.55;;
43945;SDS011;29599;51.196;4.428;2022-07-03T08:05:43;6.55;;;1.85;;
43945;SDS011;29599;51.196;4.428;2022-07-03T08:08:10;3.70;;;1.40;;
43945;SDS011;29599;51.196;4.428;2022-07-03T08:10:41;6.32;;;1.77;;
43945;SDS011;29599;51.196;4.428;2022-07-03T08:13:10;3.22;;;1.23;;
43945;SDS011;29599;51.196;4.428;2022-07-03T08:15:37;2.92;;;0.95;;
43945;SDS011;29599;51.196;4.428;2022-07-03T08:18:03;4.15;;;1.60;;
43945;SDS011;29599;51.196;4.428;2022-07-03T08:20:30;2.00;;;1.30;;
43945;SDS011;29599;51.196;4.428;2022-07-03T08:22:55;7.30;;;1.17;;
43945;SDS011;29599;51.196;4.428;2022-07-03T08:25:21;7.05;;;1.50;;
43945;SDS011;29599;51.196;4.428;2022-07-03T08:27:47;5.70;;;1.60;;
43945;SDS011;29599;51.196;4.428;2022-07-03T08:30:13;3.75;;;1.60;;
43945;SDS011;29599;51.196;4.428;2022-07-03T08:32:42;3.83;;;1.67;;
43945;SDS011;29599;51.196;4.428;2022-07-03T08:35:09;4.75;;;2.10;;
43945;SDS011;29599;51.196;4.428;2022-07-03T08:37:35;3.63;;;1.73;;
43945;SDS011;29599;51.196;4.428;2022-07-03T08:40:02;5.68;;;2.05;;
43945;SDS011;29599;51.196;4.428;2022-07-03T08:42:28;4.70;;;1.80;;
43945;SDS011;29599;51.196;4.428;2022-07-03T08:44:56;4.43;;;1.50;;
43945;SDS011;29599;51.196;4.428;2022-07-03T08:47:23;3.42;;;1.67;;
43945;SDS011;29599;51.196;4.428;2022-07-03T08:49:51;3.38;;;1.40;;
43945;SDS011;29599;51.196;4.428;2022-07-03T08:52:19;3.97;;;1.50;;
43945;SDS011;29599;51.196;4.428;2022-07-03T08:54:47;4.60;;;1.60;;
43945;SDS011;29599;51.196;4.428;2022-07-03T08:57:13;4.10;;;1.23;;
43945;SDS011;29599;51.196;4.428;2022-07-03T08:59:39;5.10;;;1.65;;
43945;SDS011;29599;51.196;4.428;2022-07-03T09:02:06;6.10;;;1.75;;
43945;SDS011;29599;51.196;4.428;2022-07-03T09:04:32;2.20;;;1.40;;
43945;SDS011;29599;51.196;4.428;2022-07-03T09:06:59;3.05;;;1.85;;
43945;SDS011;29599;51.196;4.428;2022-07-03T09:09:25;3.47;;;1.75;;
43945;SDS011;29599;51.196;4.428;2022-07-03T09:11:52;4.53;;;1.50;;
43945;SDS011;29599;51.196;4.428;2022-07-03T09:14:18;4.03;;;1.45;;
43945;SDS011;29599;51.196;4.428;2022-07-03T09:16:44;3.85;;;1.20;;
43945;SDS011;29599;51.196;4.428;2022-07-03T09:19:09;3.13;;;1.00;;
43945;SDS011;29599;51.196;4.428;2022-07-03T09:21:39;4.82;;;1.35;;
43945;SDS011;29599;51.196;4.428;2022-07-03T09:24:06;1.95;;;1.00;;
43945;SDS011;29599;51.196;4.428;2022-07-03T09:26:33;5.13;;;1.45;;
43945;SDS011;29599;51.196;4.428;2022-07-03T09:28:59;2.28;;;1.20;;
43945;SDS011;29599;51.196;4.428;2022-07-03T09:31:26;4.45;;;1.40;;
43945;SDS011;29599;51.196;4.428;2022-07-03T09:41:50;3.95;;;1.20;;
43945;SDS011;29599;51.196;4.428;2022-07-03T09:44:31;8.10;;;1.38;;
43945;SDS011;29599;51.196;4.428;2022-07-03T09:47:05;2.05;;;1.08;;
43945;SDS011;29599;51.196;4.428;2022-07-03T09:52:34;3.20;;;0.80;;
43945;SDS011;29599;51.196;4.428;2022-07-03T09:55:00;0.85;;;0.73;;
43945;SDS011;29599;51.196;4.428;2022-07-03T09:57:27;4.55;;;1.15;;
43945;SDS011;29599;51.196;4.428;2022-07-03T10:00:28;2.05;;;0.80;;
43945;SDS011;29599;51.196;4.428;2022-07-03T10:05:18;1.45;;;0.88;;
43945;SDS011;29599;51.196;4.428;2022-07-03T10:07:50;3.05;;;0.68;;
43945;SDS011;29599;51.196;4.428;2022-07-03T10:10:24;2.00;;;0.60;;
43945;SDS011;29599;51.196;4.428;2022-07-03T10:12:53;2.13;;;0.50;;
43945;SDS011;29599;51.196;4.428;2022-07-03T10:15:20;7.78;;;0.70;;
43945;SDS011;29599;51.196;4.428;2022-07-03T10:17:47;2.33;;;0.70;;
43945;SDS011;29599;51.196;4.428;2022-07-03T10:20:15;1.90;;;0.52;;
43945;SDS011;29599;51.196;4.428;2022-07-03T10:22:45;2.95;;;0.70;;
43945;SDS011;29599;51.196;4.428;2022-07-03T10:25:13;1.23;;;0.70;;
43945;SDS011;29599;51.196;4.428;2022-07-03T10:27:40;2.58;;;0.68;;
43945;SDS011;29599;51.196;4.428;2022-07-03T10:30:06;3.17;;;0.73;;
43945;SDS011;29599;51.196;4.428;2022-07-03T10:32:33;4.78;;;0.80;;
43945;SDS011;29599;51.196;4.428;2022-07-03T10:35:00;3.22;;;0.68;;
43945;SDS011;29599;51.196;4.428;2022-07-03T10:37:28;1.42;;;0.60;;
43945;SDS011;29599;51.196;4.428;2022-07-03T10:40:14;2.05;;;0.52;;
43945;SDS011;29599;51.196;4.428;2022-07-03T10:43:42;2.38;;;0.82;;
43945;SDS011;29599;51.196;4.428;2022-07-03T10:46:28;1.58;;;0.63;;
43945;SDS011;29599;51.196;4.428;2022-07-03T10:48:58;1.30;;;0.70;;
43945;SDS011;29599;51.196;4.428;2022-07-03T10:51:26;1.20;;;0.60;;
43945;SDS011;29599;51.196;4.428;2022-07-03T11:07:24;2.60;;;0.57;;
43945;SDS011;29599;51.196;4.428;2022-07-03T11:10:28;3.10;;;1.00;;
43945;SDS011;29599;51.196;4.428;2022-07-03T11:15:44;1.05;;;0.52;;
43945;SDS011;29599;51.196;4.428;2022-07-03T11:18:35;2.03;;;0.75;;
43945;SDS011;29599;51.196;4.428;2022-07-03T11:21:08;2.92;;;0.70;;
43945;SDS011;29599;51.196;4.428;2022-07-03T11:23:42;3.17;;;0.85;;
43945;SDS011;29599;51.196;4.428;2022-07-03T11:26:27;2.65;;;0.70;;
43945;SDS011;29599;51.196;4.428;2022-07-03T11:28:53;1.25;;;0.57;;
43945;SDS011;29599;51.196;4.428;2022-07-03T11:34:18;3.75;;;0.77;;
43945;SDS011;29599;51.196;4.428;2022-07-03T11:39:12;1.67;;;1.02;;
43945;SDS011;29599;51.196;4.428;2022-07-03T11:44:04;3.35;;;0.82;;
43945;SDS011;29599;51.196;4.428;2022-07-03T11:46:36;1.60;;;0.50;;
43945;SDS011;29599;51.196;4.428;2022-07-03T11:49:06;1.15;;;0.70;;
43945;SDS011;29599;51.196;4.428;2022-07-03T11:51:36;1.48;;;0.57;;
43945;SDS011;29599;51.196;4.428;2022-07-03T11:54:04;1.30;;;0.50;;
43945;SDS011;29599;51.196;4.428;2022-07-03T11:56:31;2.70;;;0.70;;
43945;SDS011;29599;51.196;4.428;2022-07-03T11:58:58;7.53;;;0.73;;
43945;SDS011;29599;51.196;4.428;2022-07-03T12:03:51;2.28;;;0.73;;
43945;SDS011;29599;51.196;4.428;2022-07-03T12:06:48;5.30;;;0.68;;
43945;SDS011;29599;51.196;4.428;2022-07-03T12:09:21;4.78;;;0.88;;
43945;SDS011;29599;51.196;4.428;2022-07-03T12:11:54;3.70;;;0.77;;
43945;SDS011;29599;51.196;4.428;2022-07-03T12:17:16;2.70;;;0.95;;
43945;SDS011;29599;51.196;4.428;2022-07-03T12:19:44;4.80;;;1.30;;
43945;SDS011;29599;51.196;4.428;2022-07-03T12:22:10;2.03;;;0.68;;
43945;SDS011;29599;51.196;4.428;2022-07-03T12:24:36;1.60;;;0.60;;
43945;SDS011;29599;51.196;4.428;2022-07-03T12:27:02;5.10;;;0.98;;
43945;SDS011;29599;51.196;4.428;2022-07-03T12:29:29;3.85;;;0.60;;
43945;SDS011;29599;51.196;4.428;2022-07-03T12:31:55;2.30;;;1.13;;
43945;SDS011;29599;51.196;4.428;2022-07-03T12:34:21;2.00;;;0.98;;
43945;SDS011;29599;51.196;4.428;2022-07-03T12:36:54;3.05;;;0.80;;
43945;SDS011;29599;51.196;4.428;2022-07-03T12:39:21;1.73;;;0.80;;
43945;SDS011;29599;51.196;4.428;2022-07-03T12:41:47;2.25;;;0.60;;
43945;SDS011;29599;51.196;4.428;2022-07-03T12:44:12;1.63;;;0.50;;
43945;SDS011;29599;51.196;4.428;2022-07-03T12:46:43;1.90;;;0.70;;
43945;SDS011;29599;51.196;4.428;2022-07-03T12:49:09;2.03;;;0.80;;
43945;SDS011;29599;51.196;4.428;2022-07-03T12:51:39;2.20;;;0.50;;
43945;SDS011;29599;51.196;4.428;2022-07-03T12:54:12;3.45;;;1.08;;
43945;SDS011;29599;51.196;4.428;2022-07-03T12:56:40;3.78;;;0.82;;
43945;SDS011;29599;51.196;4.428;2022-07-03T12:59:07;1.58;;;0.50;;
43945;SDS011;29599;51.196;4.428;2022-07-03T13:01:59;2.67;;;0.85;;
43945;SDS011;29599;51.196;4.428;2022-07-03T13:04:32;3.20;;;0.70;;
43945;SDS011;29599;51.196;4.428;2022-07-03T13:07:03;3.15;;;0.80;;
43945;SDS011;29599;51.196;4.428;2022-07-03T13:09:30;2.85;;;0.80;;
43945;SDS011;29599;51.196;4.428;2022-07-03T13:11:56;2.85;;;0.80;;
43945;SDS011;29599;51.196;4.428;2022-07-03T13:14:22;2.60;;;0.73;;
43945;SDS011;29599;51.196;4.428;2022-07-03T13:16:50;1.98;;;0.55;;
43945;SDS011;29599;51.196;4.428;2022-07-03T13:19:20;6.88;;;1.20;;
43945;SDS011;29599;51.196;4.428;2022-07-03T13:21:47;4.82;;;0.63;;
43945;SDS011;29599;51.196;4.428;2022-07-03T13:24:14;2.65;;;0.70;;
43945;SDS011;29599;51.196;4.428;2022-07-03T13:26:41;2.15;;;0.50;;
43945;SDS011;29599;51.196;4.428;2022-07-03T13:29:07;5.93;;;1.27;;
43945;SDS011;29599;51.196;4.428;2022-07-03T13:31:33;2.83;;;1.00;;
43945;SDS011;29599;51.196;4.428;2022-07-03T13:33:59;1.08;;;0.50;;
43945;SDS011;29599;51.196;4.428;2022-07-03T13:36:28;3.10;;;0.88;;
43945;SDS011;29599;51.196;4.428;2022-07-03T13:38:55;2.47;;;0.68;;
43945;SDS011;29599;51.196;4.428;2022-07-03T13:41:21;1.30;;;0.60;;
43945;SDS011;29599;51.196;4.428;2022-07-03T13:43:48;2.20;;;0.68;;
43945;SDS011;29599;51.196;4.428;2022-07-03T13:46:17;1.92;;;0.60;;
43945;SDS011;29599;51.196;4.428;2022-07-03T13:48:46;5.13;;;0.90;;
43945;SDS011;29599;51.196;4.428;2022-07-03T13:51:12;2.03;;;0.90;;
43945;SDS011;29599;51.196;4.428;2022-07-03T13:53:38;5.40;;;0.73;;
43945;SDS011;29599;51.196;4.428;2022-07-03T13:56:03;5.63;;;0.93;;
43945;SDS011;29599;51.196;4.428;2022-07-03T13:58:29;4.30;;;0.77;;
43945;SDS011;29599;51.196;4.428;2022-07-03T14:00:55;2.63;;;0.90;;
43945;SDS011;29599;51.196;4.428;2022-07-03T14:03:21;2.40;;;0.60;;
43945;SDS011;29599;51.196;4.428;2022-07-03T14:05:47;4.28;;;1.23;;
43945;SDS011;29599;51.196;4.428;2022-07-03T14:08:16;0.63;;;0.60;;
43945;SDS011;29599;51.196;4.428;2022-07-03T14:10:42;5.60;;;0.85;;
43945;SDS011;29599;51.196;4.428;2022-07-03T14:13:08;3.83;;;1.17;;
43945;SDS011;29599;51.196;4.428;2022-07-03T14:15:34;8.05;;;1.20;;
43945;SDS011;29599;51.196;4.428;2022-07-03T14:17:59;5.72;;;0.90;;
43945;SDS011;29599;51.196;4.428;2022-07-03T14:20:26;3.05;;;0.40;;
43945;SDS011;29599;51.196;4.428;2022-07-03T14:22:52;2.60;;;0.63;;
43945;SDS011;29599;51.196;4.428;2022-07-03T14:25:18;5.55;;;0.80;;
43945;SDS011;29599;51.196;4.428;2022-07-03T14:27:43;2.13;;;0.82;;
43945;SDS011;29599;51.196;4.428;2022-07-03T14:30:27;2.63;;;1.10;;
43945;SDS011;29599;51.196;4.428;2022-07-03T14:33:11;9.57;;;0.85;;
43945;SDS011;29599;51.196;4.428;2022-07-03T14:35:37;1.90;;;0.60;;
43945;SDS011;29599;51.196;4.428;2022-07-03T14:38:02;1.10;;;0.40;;
43945;SDS011;29599;51.196;4.428;2022-07-03T14:40:28;1.30;;;0.50;;
43945;SDS011;29599;51.196;4.428;2022-07-03T14:42:55;4.03;;;0.60;;
43945;SDS011;29599;51.196;4.428;2022-07-03T14:45:22;3.88;;;0.80;;
43945;SDS011;29599;51.196;4.428;2022-07-03T14:47:48;4.78;;;0.80;;
43945;SDS011;29599;51.196;4.428;2022-07-03T14:50:13;2.05;;;0.57;;
43945;SDS011;29599;51.196;4.428;2022-07-03T14:52:39;2.60;;;0.63;;
43945;SDS011;29599;51.196;4.428;2022-07-03T14:55:05;1.25;;;0.70;;
43945;SDS011;29599;51.196;4.428;2022-07-03T15:00:17;2.15;;;0.75;;
43945;SDS011;29599;51.196;4.428;2022-07-03T15:02:48;2.67;;;0.60;;
43945;SDS011;29599;51.196;4.428;2022-07-03T15:05:20;2.80;;;0.50;;
43945;SDS011;29599;51.196;4.428;2022-07-03T15:10:17;3.30;;;0.73;;
43945;SDS011;29599;51.196;4.428;2022-07-03T15:12:48;1.63;;;0.65;;
43945;SDS011;29599;51.196;4.428;2022-07-03T15:15:17;16.55;;;1.00;;
43945;SDS011;29599;51.196;4.428;2022-07-03T15:17:46;2.03;;;0.50;;
43945;SDS011;29599;51.196;4.428;2022-07-03T15:20:14;2.55;;;0.73;;
43945;SDS011;29599;51.196;4.428;2022-07-03T15:22:42;2.63;;;0.52;;
43945;SDS011;29599;51.196;4.428;2022-07-03T15:25:09;3.90;;;1.08;;
43945;SDS011;29599;51.196;4.428;2022-07-03T15:27:36;2.70;;;0.93;;
43945;SDS011;29599;51.196;4.428;2022-07-03T15:30:06;1.98;;;0.50;;
43945;SDS011;29599;51.196;4.428;2022-07-03T15:32:38;2.70;;;0.77;;
43945;SDS011;29599;51.196;4.428;2022-07-03T15:35:09;10.45;;;0.68;;
43945;SDS011;29599;51.196;4.428;2022-07-03T15:54:23;1.90;;;0.50;;
43945;SDS011;29599;51.196;4.428;2022-07-03T15:57:02;3.33;;;0.98;;
43945;SDS011;29599;51.196;4.428;2022-07-03T15:59:29;8.13;;;0.60;;
43945;SDS011;29599;51.196;4.428;2022-07-03T16:01:57;2.17;;;0.63;;
43945;SDS011;29599;51.196;4.428;2022-07-03T16:07:28;3.22;;;0.80;;
43945;SDS011;29599;51.196;4.428;2022-07-03T16:09:56;4.28;;;0.95;;
43945;SDS011;29599;51.196;4.428;2022-07-03T16:12:23;2.63;;;0.80;;
43945;SDS011;29599;51.196;4.428;2022-07-03T16:14:50;4.88;;;1.17;;
43945;SDS011;29599;51.196;4.428;2022-07-03T16:17:17;4.55;;;1.10;;
43945;SDS011;29599;51.196;4.428;2022-07-03T16:19:45;2.75;;;0.65;;
43945;SDS011;29599;51.196;4.428;2022-07-03T16:22:12;4.05;;;1.00;;
43945;SDS011;29599;51.196;4.428;2022-07-03T16:24:38;3.42;;;1.20;;
43945;SDS011;29599;51.196;4.428;2022-07-03T16:27:06;7.38;;;0.80;;
43945;SDS011;29599;51.196;4.428;2022-07-03T16:29:36;3.88;;;0.90;;
43945;SDS011;29599;51.196;4.428;2022-07-03T16:32:02;5.80;;;0.80;;
43945;SDS011;29599;51.196;4.428;2022-07-03T16:34:30;6.40;;;1.55;;